createdAt,value
2018-09-15T00:00:05.147Z,7.30
2018-09-15T00:01:05.211Z,8.00
2018-09-15T00:02:05.139Z,8.00
2018-09-15T00:03:05.214Z,8.00
2018-09-15T00:04:05.145Z,8.00
2018-09-15T00:05:05.147Z,8.00
2018-09-15T00:06:05.212Z,8.00
2018-09-15T00:07:05.218Z,8.00
2018-09-15T00:08:05.151Z,8.00
2018-09-15T00:09:05.221Z,8.00
2018-09-15T00:10:05.218Z,8.00
2018-09-15T00:11:05.208Z,8.20
2018-09-15T00:12:05.215Z,8.20
2018-09-15T00:13:05.171Z,8.20
2018-09-15T00:14:05.126Z,8.20
2018-09-15T00:15:05.171Z,8.20
2018-09-15T00:16:05.193Z,8.20
2018-09-15T00:17:05.126Z,8.20
2018-09-15T00:18:05.229Z,8.20
2018-09-15T00:19:05.216Z,8.20
2018-09-15T00:20:05.105Z,8.20
2018-09-15T00:21:05.230Z,8.40
2018-09-15T00:22:05.196Z,8.40
2018-09-15T00:23:05.229Z,8.40
2018-09-15T00:24:05.140Z,8.40
2018-09-15T00:25:05.236Z,8.40
2018-09-15T00:26:05.297Z,8.40
2018-09-15T00:27:05.235Z,8.40
2018-09-15T00:28:05.268Z,8.40
2018-09-15T00:29:05.162Z,8.40
2018-09-15T00:30:05.183Z,8.40
2018-09-15T00:31:05.190Z,8.30
2018-09-15T00:32:05.248Z,8.30
2018-09-15T00:33:05.250Z,8.30
2018-09-15T00:34:05.176Z,8.30
2018-09-15T00:35:05.252Z,8.30
2018-09-15T00:36:05.252Z,8.30
2018-09-15T00:37:05.309Z,8.30
2018-09-15T00:38:05.241Z,8.30
2018-09-15T00:39:05.462Z,8.30
2018-09-15T00:40:05.219Z,8.30
2018-09-15T00:41:05.245Z,8.50
2018-09-15T00:42:05.279Z,8.50
2018-09-15T00:43:05.219Z,8.50
2018-09-15T00:44:05.277Z,8.50
2018-09-15T00:45:05.218Z,8.50
2018-09-15T00:46:05.286Z,8.50
2018-09-15T00:47:05.225Z,8.50
2018-09-15T00:48:05.232Z,8.50
2018-09-15T00:49:05.292Z,8.50
2018-09-15T00:50:05.173Z,8.50
2018-09-15T00:51:05.187Z,7.90
2018-09-15T00:52:05.189Z,7.90
2018-09-15T00:53:05.265Z,7.90
2018-09-15T00:54:05.190Z,7.90
2018-09-15T00:55:05.262Z,7.90
2018-09-15T00:56:05.260Z,7.90
2018-09-15T00:57:05.195Z,7.90
2018-09-15T00:58:05.226Z,7.90
2018-09-15T00:59:05.162Z,7.90
2018-09-15T01:00:05.207Z,7.90
2018-09-15T01:01:05.378Z,9.20
2018-09-15T01:02:05.277Z,9.20
2018-09-15T01:03:05.257Z,9.20
2018-09-15T01:04:05.278Z,9.20
2018-09-15T01:05:05.280Z,9.20
2018-09-15T01:06:05.277Z,9.20
2018-09-15T01:07:05.302Z,9.20
2018-09-15T01:08:05.260Z,9.20
2018-09-15T01:09:05.277Z,9.20
2018-09-15T01:10:05.335Z,9.20
2018-09-15T01:11:05.267Z,8.20
2018-09-15T01:12:05.299Z,8.20
2018-09-15T01:13:05.202Z,8.20
2018-09-15T01:14:05.272Z,8.20
2018-09-15T01:15:05.254Z,8.20
2018-09-15T01:16:05.267Z,8.20
2018-09-15T01:17:05.207Z,8.20
2018-09-15T01:18:05.239Z,8.20
2018-09-15T01:19:05.207Z,8.20
2018-09-15T01:20:05.388Z,8.20
2018-09-15T01:21:05.334Z,8.99
2018-09-15T01:22:05.217Z,8.99
2018-09-15T01:23:05.289Z,8.99
2018-09-15T01:24:05.319Z,8.99
2018-09-15T01:25:05.251Z,8.99
2018-09-15T01:26:05.236Z,8.99
2018-09-15T01:27:05.200Z,8.99
2018-09-15T01:28:05.196Z,8.99
2018-09-15T01:29:05.254Z,8.99
2018-09-15T01:30:05.212Z,8.99
2018-09-15T01:31:05.277Z,8.20
2018-09-15T01:32:05.335Z,8.20
2018-09-15T01:33:05.205Z,8.20
2018-09-15T01:34:05.213Z,8.20
2018-09-15T01:35:05.207Z,8.20
2018-09-15T01:36:05.231Z,8.20
2018-09-15T01:37:05.283Z,8.20
2018-09-15T01:38:05.281Z,8.20
2018-09-15T01:39:05.342Z,8.20
2018-09-15T01:40:05.216Z,8.20
2018-09-15T01:41:05.231Z,8.40
2018-09-15T01:42:05.331Z,8.40
2018-09-15T01:43:05.331Z,8.40
2018-09-15T01:44:05.333Z,8.40
2018-09-15T01:45:05.295Z,8.40
2018-09-15T01:46:05.328Z,8.40
2018-09-15T01:47:05.318Z,8.40
2018-09-15T01:48:05.354Z,8.40
2018-09-15T01:49:05.267Z,8.40
2018-09-15T01:50:05.212Z,8.40
2018-09-15T01:51:05.262Z,7.80
2018-09-15T01:52:05.305Z,7.80
2018-09-15T01:53:05.333Z,7.80
2018-09-15T01:54:05.268Z,7.80
2018-09-15T01:55:05.307Z,7.80
2018-09-15T01:56:05.298Z,7.80
2018-09-15T01:57:05.277Z,7.80
2018-09-15T01:58:05.299Z,7.80
2018-09-15T01:59:05.228Z,7.80
2018-09-15T02:00:05.318Z,7.80
2018-09-15T02:01:05.274Z,8.60
2018-09-15T02:02:05.246Z,8.60
2018-09-15T02:03:05.273Z,8.60
2018-09-15T02:04:05.268Z,8.60
2018-09-15T02:05:05.399Z,8.60
2018-09-15T02:06:05.245Z,8.60
2018-09-15T02:07:05.349Z,8.60
2018-09-15T02:08:05.248Z,8.60
2018-09-15T02:09:05.267Z,8.60
2018-09-15T02:10:05.283Z,8.60
2018-09-15T02:11:05.323Z,9.30
2018-09-15T02:12:05.253Z,9.30
2018-09-15T02:13:05.317Z,9.30
2018-09-15T02:14:05.336Z,9.30
2018-09-15T02:15:05.371Z,9.30
2018-09-15T02:16:05.255Z,9.30
2018-09-15T02:17:05.327Z,9.30
2018-09-15T02:18:05.290Z,9.30
2018-09-15T02:19:05.329Z,9.30
2018-09-15T02:20:05.281Z,9.30
2018-09-15T02:21:05.254Z,9.30
2018-09-15T02:22:05.267Z,9.30
2018-09-15T02:23:05.416Z,9.30
2018-09-15T02:24:05.269Z,9.30
2018-09-15T02:25:05.338Z,9.30
2018-09-15T02:26:05.272Z,9.30
2018-09-15T02:27:05.279Z,9.30
2018-09-15T02:28:05.277Z,9.30
2018-09-15T02:29:05.349Z,9.30
2018-09-15T02:30:05.332Z,9.30
2018-09-15T02:31:05.270Z,9.10
2018-09-15T02:32:05.337Z,9.10
2018-09-15T02:33:05.272Z,9.10
2018-09-15T02:34:05.340Z,9.10
2018-09-15T02:35:05.345Z,9.10
2018-09-15T02:36:05.280Z,9.10
2018-09-15T02:37:05.368Z,9.10
2018-09-15T02:38:05.347Z,9.10
2018-09-15T02:39:05.270Z,9.10
2018-09-15T02:40:05.283Z,9.10
2018-09-15T02:41:05.339Z,9.20
2018-09-15T02:42:05.340Z,9.20
2018-09-15T02:43:05.399Z,9.20
2018-09-15T02:44:05.343Z,9.20
2018-09-15T02:45:05.347Z,9.20
2018-09-15T02:46:05.271Z,9.20
2018-09-15T02:47:05.357Z,9.20
2018-09-15T02:48:05.284Z,9.20
2018-09-15T02:49:05.292Z,9.20
2018-09-15T02:50:05.351Z,9.20
2018-09-15T02:51:05.298Z,10.40
2018-09-15T02:52:05.216Z,10.40
2018-09-15T02:53:05.201Z,10.40
2018-09-15T02:54:05.244Z,10.40
2018-09-15T02:55:05.259Z,10.40
2018-09-15T02:56:05.207Z,10.40
2018-09-15T02:57:05.292Z,10.40
2018-09-15T02:58:05.333Z,10.40
2018-09-15T02:59:05.330Z,10.40
2018-09-15T03:00:05.338Z,10.40
2018-09-15T03:01:05.372Z,9.70
2018-09-15T03:02:05.363Z,9.70
2018-09-15T03:03:05.313Z,9.70
2018-09-15T03:04:05.367Z,9.70
2018-09-15T03:05:05.312Z,9.70
2018-09-15T03:06:05.363Z,9.70
2018-09-15T03:07:05.285Z,9.70
2018-09-15T03:08:05.240Z,9.70
2018-09-15T03:09:05.382Z,9.70
2018-09-15T03:10:05.377Z,9.70
2018-09-15T03:11:05.348Z,11.00
2018-09-15T03:12:05.349Z,11.00
2018-09-15T03:13:05.290Z,11.00
2018-09-15T03:14:05.361Z,11.00
2018-09-15T03:15:05.355Z,11.00
2018-09-15T03:16:05.282Z,11.00
2018-09-15T03:17:05.284Z,11.00
2018-09-15T03:18:05.357Z,11.00
2018-09-15T03:19:05.287Z,11.00
2018-09-15T03:20:05.355Z,11.00
2018-09-15T03:21:05.323Z,10.90
2018-09-15T03:22:05.279Z,10.90
2018-09-15T03:23:05.393Z,10.90
2018-09-15T03:24:05.359Z,10.90
2018-09-15T03:25:05.283Z,10.90
2018-09-15T03:26:05.257Z,10.90
2018-09-15T03:27:05.387Z,10.90
2018-09-15T03:28:05.328Z,10.90
2018-09-15T03:29:05.325Z,10.90
2018-09-15T03:30:05.305Z,10.90
2018-09-15T03:31:05.299Z,11.00
2018-09-15T03:32:05.303Z,11.00
2018-09-15T03:33:05.377Z,11.00
2018-09-15T03:34:05.372Z,11.00
2018-09-15T03:35:05.366Z,11.00
2018-09-15T03:36:05.300Z,11.00
2018-09-15T03:37:05.363Z,11.00
2018-09-15T03:38:05.373Z,11.00
2018-09-15T03:39:05.302Z,11.00
2018-09-15T03:40:05.306Z,11.00
2018-09-15T03:41:05.396Z,10.90
2018-09-15T03:42:05.298Z,10.90
2018-09-15T03:43:05.377Z,10.90
2018-09-15T03:44:05.280Z,10.90
2018-09-15T03:45:05.358Z,10.90
2018-09-15T03:46:05.386Z,10.90
2018-09-15T03:47:05.386Z,10.90
2018-09-15T03:48:05.341Z,10.90
2018-09-15T03:49:05.339Z,10.90
2018-09-15T03:50:05.379Z,10.90
2018-09-15T03:51:05.395Z,10.90
2018-09-15T03:52:05.402Z,9.80
2018-09-15T03:53:05.422Z,9.80
2018-09-15T03:54:05.405Z,9.80
2018-09-15T03:55:05.421Z,9.80
2018-09-15T03:56:05.327Z,9.80
2018-09-15T03:57:05.414Z,9.80
2018-09-15T03:58:05.313Z,9.80
2018-09-15T03:59:05.304Z,9.80
2018-09-15T04:00:05.420Z,9.80
2018-09-15T04:01:05.308Z,9.80
2018-09-15T04:02:05.312Z,10.20
2018-09-15T04:03:05.384Z,10.20
2018-09-15T04:04:05.317Z,10.20
2018-09-15T04:05:05.386Z,10.20
2018-09-15T04:06:05.278Z,10.20
2018-09-15T04:07:05.320Z,10.20
2018-09-15T04:08:05.332Z,10.20
2018-09-15T04:09:05.394Z,10.20
2018-09-15T04:10:05.325Z,10.20
2018-09-15T04:11:05.341Z,10.20
2018-09-15T04:12:05.416Z,10.20
2018-09-15T04:13:05.432Z,10.20
2018-09-15T04:14:05.411Z,10.20
2018-09-15T04:15:05.402Z,10.20
2018-09-15T04:16:05.426Z,10.20
2018-09-15T04:17:05.403Z,10.20
2018-09-15T04:18:05.409Z,10.20
2018-09-15T04:19:05.379Z,10.20
2018-09-15T04:20:05.405Z,10.20
2018-09-15T04:21:05.446Z,10.20
2018-09-15T04:22:05.334Z,10.60
2018-09-15T04:23:05.402Z,10.60
2018-09-15T04:24:05.400Z,10.60
2018-09-15T04:25:05.406Z,10.60
2018-09-15T04:26:05.299Z,10.60
2018-09-15T04:27:05.400Z,10.60
2018-09-15T04:28:05.400Z,10.60
2018-09-15T04:29:05.408Z,10.60
2018-09-15T04:30:05.407Z,10.60
2018-09-15T04:31:05.340Z,10.60
2018-09-15T04:32:05.424Z,9.90
2018-09-15T04:33:05.412Z,9.90
2018-09-15T04:34:05.346Z,9.90
2018-09-15T04:35:05.422Z,9.90
2018-09-15T04:36:05.428Z,9.90
2018-09-15T04:37:05.348Z,9.90
2018-09-15T04:38:05.421Z,9.90
2018-09-15T04:39:05.367Z,9.90
2018-09-15T04:40:05.426Z,9.90
2018-09-15T04:41:05.376Z,9.90
2018-09-15T04:42:05.427Z,10.30
2018-09-15T04:43:05.430Z,10.30
2018-09-15T04:44:05.429Z,10.30
2018-09-15T04:45:05.442Z,10.30
2018-09-15T04:46:05.395Z,10.30
2018-09-15T04:47:05.420Z,10.30
2018-09-15T04:48:05.475Z,10.30
2018-09-15T04:49:05.442Z,10.30
2018-09-15T04:50:05.361Z,10.30
2018-09-15T04:51:05.315Z,10.30
2018-09-15T04:52:05.388Z,11.20
2018-09-15T04:53:05.401Z,11.20
2018-09-15T04:54:05.433Z,11.20
2018-09-15T04:55:05.333Z,11.20
2018-09-15T04:56:05.444Z,11.20
2018-09-15T04:57:05.435Z,11.20
2018-09-15T04:58:05.393Z,11.20
2018-09-15T04:59:05.397Z,11.20
2018-09-15T05:00:05.401Z,11.20
2018-09-15T05:01:05.397Z,11.20
2018-09-15T05:02:05.435Z,10.80
2018-09-15T05:03:05.495Z,10.80
2018-09-15T05:04:05.380Z,10.80
2018-09-15T05:05:05.491Z,10.80
2018-09-15T05:06:05.448Z,10.80
2018-09-15T05:07:05.439Z,10.80
2018-09-15T05:08:05.363Z,10.80
2018-09-15T05:09:05.474Z,10.80
2018-09-15T05:10:05.496Z,10.80
2018-09-15T05:11:05.400Z,10.80
2018-09-15T05:12:05.312Z,10.00
2018-09-15T05:13:05.336Z,10.00
2018-09-15T05:14:05.319Z,10.00
2018-09-15T05:15:05.397Z,10.00
2018-09-15T05:16:05.430Z,10.00
2018-09-15T05:17:05.346Z,10.00
2018-09-15T05:18:05.314Z,10.00
2018-09-15T05:19:05.376Z,10.00
2018-09-15T05:20:05.400Z,10.00
2018-09-15T05:21:05.320Z,10.00
2018-09-15T05:22:05.466Z,10.90
2018-09-15T05:23:05.361Z,10.90
2018-09-15T05:24:05.415Z,10.90
2018-09-15T05:25:05.397Z,10.90
2018-09-15T05:26:05.512Z,10.90
2018-09-15T05:27:05.485Z,10.90
2018-09-15T05:28:05.447Z,10.90
2018-09-15T05:29:05.451Z,10.90
2018-09-15T05:30:05.492Z,10.90
2018-09-15T05:31:05.411Z,10.90
2018-09-15T05:32:05.453Z,10.30
2018-09-15T05:33:05.473Z,10.30
2018-09-15T05:34:05.436Z,10.30
2018-09-15T05:35:05.495Z,10.30
2018-09-15T05:36:05.394Z,10.30
2018-09-15T05:37:05.431Z,10.30
2018-09-15T05:38:05.486Z,10.30
2018-09-15T05:39:05.463Z,10.30
2018-09-15T05:40:05.479Z,10.30
2018-09-15T05:41:05.455Z,10.30
2018-09-15T05:42:05.413Z,11.20
2018-09-15T05:43:05.398Z,11.20
2018-09-15T05:44:05.380Z,11.20
2018-09-15T05:45:05.464Z,11.20
2018-09-15T05:46:05.503Z,11.20
2018-09-15T05:47:05.467Z,11.20
2018-09-15T05:48:05.398Z,11.20
2018-09-15T05:49:05.483Z,11.20
2018-09-15T05:50:05.480Z,11.20
2018-09-15T05:51:05.407Z,11.20
2018-09-15T05:52:05.500Z,11.30
2018-09-15T05:53:05.472Z,11.30
2018-09-15T05:54:05.496Z,11.30
2018-09-15T05:55:05.437Z,11.30
2018-09-15T05:56:05.500Z,11.30
2018-09-15T05:57:05.475Z,11.30
2018-09-15T05:58:05.601Z,11.30
2018-09-15T05:59:05.414Z,11.30
2018-09-15T06:00:05.520Z,11.30
2018-09-15T06:01:05.508Z,11.30
2018-09-15T06:02:05.399Z,11.30
2018-09-15T06:03:05.512Z,11.30
2018-09-15T06:04:05.485Z,11.30
2018-09-15T06:05:05.518Z,11.30
2018-09-15T06:06:05.550Z,11.30
2018-09-15T06:07:05.449Z,11.30
2018-09-15T06:08:05.512Z,11.30
2018-09-15T06:09:05.437Z,11.30
2018-09-15T06:10:05.408Z,11.30
2018-09-15T06:11:05.437Z,11.30
2018-09-15T06:12:05.409Z,12.70
2018-09-15T06:13:05.408Z,12.70
2018-09-15T06:14:05.409Z,12.70
2018-09-15T06:15:05.487Z,12.70
2018-09-15T06:16:05.415Z,12.70
2018-09-15T06:17:05.486Z,12.70
2018-09-15T06:18:05.526Z,12.70
2018-09-15T06:19:05.497Z,12.70
2018-09-15T06:20:05.416Z,12.70
2018-09-15T06:21:05.410Z,12.70
2018-09-15T06:22:05.462Z,13.30
2018-09-15T06:23:05.487Z,13.30
2018-09-15T06:24:05.410Z,13.30
2018-09-15T06:25:05.394Z,13.30
2018-09-15T06:26:05.517Z,13.30
2018-09-15T06:27:05.413Z,13.30
2018-09-15T06:28:05.473Z,13.30
2018-09-15T06:29:05.412Z,13.30
2018-09-15T06:30:05.531Z,13.30
2018-09-15T06:31:05.626Z,13.30
2018-09-15T06:32:05.503Z,13.20
2018-09-15T06:33:05.417Z,13.20
2018-09-15T06:34:05.505Z,13.20
2018-09-15T06:35:05.496Z,13.20
2018-09-15T06:36:05.471Z,13.20
2018-09-15T06:37:05.457Z,13.20
2018-09-15T06:38:05.537Z,13.20
2018-09-15T06:39:05.471Z,13.20
2018-09-15T06:40:05.527Z,13.20
2018-09-15T06:41:05.498Z,13.20
2018-09-15T06:42:05.420Z,13.40
2018-09-15T06:43:05.524Z,13.40
2018-09-15T06:44:05.505Z,13.40
2018-09-15T06:45:05.508Z,13.40
2018-09-15T06:46:05.506Z,13.40
2018-09-15T06:47:05.425Z,13.40
2018-09-15T06:48:05.508Z,13.40
2018-09-15T06:49:05.423Z,13.40
2018-09-15T06:50:05.506Z,13.40
2018-09-15T06:51:05.414Z,13.40
2018-09-15T06:52:05.548Z,14.20
2018-09-15T06:53:05.429Z,14.20
2018-09-15T06:54:05.545Z,14.20
2018-09-15T06:55:05.510Z,14.20
2018-09-15T06:56:05.512Z,14.20
2018-09-15T06:57:05.498Z,14.20
2018-09-15T06:58:05.450Z,14.20
2018-09-15T06:59:05.502Z,14.20
2018-09-15T07:00:05.482Z,14.20
2018-09-15T07:01:05.489Z,14.20
2018-09-15T07:02:05.437Z,15.80
2018-09-15T07:03:05.493Z,15.80
2018-09-15T07:04:05.548Z,15.80
2018-09-15T07:05:05.536Z,15.80
2018-09-15T07:06:05.492Z,15.80
2018-09-15T07:07:05.612Z,15.80
2018-09-15T07:08:05.484Z,15.80
2018-09-15T07:09:05.540Z,15.80
2018-09-15T07:10:05.554Z,15.80
2018-09-15T07:11:05.551Z,15.80
2018-09-15T07:12:05.524Z,12.60
2018-09-15T07:13:05.529Z,12.60
2018-09-15T07:14:05.528Z,12.60
2018-09-15T07:15:05.566Z,12.60
2018-09-15T07:16:05.444Z,12.60
2018-09-15T07:17:05.500Z,12.60
2018-09-15T07:18:05.508Z,12.60
2018-09-15T07:19:05.487Z,12.60
2018-09-15T07:20:05.497Z,12.60
2018-09-15T07:21:05.443Z,12.60
2018-09-15T07:22:05.551Z,12.70
2018-09-15T07:23:05.553Z,12.70
2018-09-15T07:24:05.558Z,12.70
2018-09-15T07:25:05.469Z,12.70
2018-09-15T07:26:05.665Z,12.70
2018-09-15T07:27:05.508Z,12.70
2018-09-15T07:28:05.497Z,12.70
2018-09-15T07:29:05.514Z,12.70
2018-09-15T07:30:05.503Z,12.70
2018-09-15T07:31:05.612Z,12.70
2018-09-15T07:32:05.493Z,9.80
2018-09-15T07:33:05.442Z,9.80
2018-09-15T07:34:05.576Z,9.80
2018-09-15T07:35:05.503Z,9.80
2018-09-15T07:36:05.543Z,9.80
2018-09-15T07:37:05.519Z,9.80
2018-09-15T07:38:05.568Z,9.80
2018-09-15T07:39:05.575Z,9.80
2018-09-15T07:40:05.514Z,9.80
2018-09-15T07:41:05.484Z,9.80
2018-09-15T07:42:05.463Z,9.90
2018-09-15T07:43:05.444Z,9.90
2018-09-15T07:44:05.648Z,9.90
2018-09-15T07:45:05.543Z,9.90
2018-09-15T07:46:05.508Z,9.90
2018-09-15T07:47:05.466Z,9.90
2018-09-15T07:48:05.548Z,9.90
2018-09-15T07:49:05.546Z,9.90
2018-09-15T07:50:05.468Z,9.90
2018-09-15T07:51:05.586Z,9.90
2018-09-15T07:52:05.487Z,8.40
2018-09-15T07:53:05.565Z,8.40
2018-09-15T07:54:05.480Z,8.40
2018-09-15T07:55:05.493Z,8.40
2018-09-15T07:56:05.553Z,8.40
2018-09-15T07:57:05.573Z,8.40
2018-09-15T07:58:05.563Z,8.40
2018-09-15T07:59:05.558Z,8.40
2018-09-15T08:00:05.516Z,8.40
2018-09-15T08:01:05.558Z,8.40
2018-09-15T08:02:05.665Z,7.50
2018-09-15T08:03:05.495Z,7.50
2018-09-15T08:04:05.532Z,7.50
2018-09-15T08:05:05.584Z,7.50
2018-09-15T08:06:05.525Z,7.50
2018-09-15T08:07:05.541Z,7.50
2018-09-15T08:08:05.563Z,7.50
2018-09-15T08:09:05.479Z,7.50
2018-09-15T08:10:05.561Z,7.50
2018-09-15T08:11:05.553Z,7.50
2018-09-15T08:12:05.512Z,6.50
2018-09-15T08:13:05.508Z,6.50
2018-09-15T08:14:05.509Z,6.50
2018-09-15T08:15:05.468Z,6.50
2018-09-15T08:16:05.517Z,6.50
2018-09-15T08:17:05.459Z,6.50
2018-09-15T08:18:05.519Z,6.50
2018-09-15T08:19:05.471Z,6.50
2018-09-15T08:20:05.516Z,6.50
2018-09-15T08:21:05.448Z,6.50
2018-09-15T08:22:05.477Z,6.30
2018-09-15T08:23:05.532Z,6.30
2018-09-15T08:24:05.476Z,6.30
2018-09-15T08:25:05.495Z,6.30
2018-09-15T08:26:05.544Z,6.30
2018-09-15T08:27:05.529Z,6.30
2018-09-15T08:28:05.574Z,6.30
2018-09-15T08:29:05.590Z,6.30
2018-09-15T08:30:05.578Z,6.30
2018-09-15T08:31:05.573Z,6.30
2018-09-15T08:32:05.548Z,6.50
2018-09-15T08:33:05.538Z,6.50
2018-09-15T08:35:05.488Z,6.50
2018-09-15T08:36:05.521Z,6.50
2018-09-15T08:37:05.718Z,6.50
2018-09-15T08:38:05.629Z,6.50
2018-09-15T08:39:05.502Z,6.50
2018-09-15T08:40:05.562Z,6.50
2018-09-15T08:41:05.582Z,6.50
2018-09-15T08:42:05.657Z,4.99
2018-09-15T08:43:05.586Z,4.99
2018-09-15T08:44:05.544Z,4.99
2018-09-15T08:45:05.568Z,4.99
2018-09-15T08:46:05.607Z,4.99
2018-09-15T08:47:05.587Z,4.99
2018-09-15T08:48:05.493Z,4.99
2018-09-15T08:49:05.622Z,4.99
2018-09-15T08:50:05.619Z,4.99
2018-09-15T08:51:05.565Z,4.99
2018-09-15T08:52:05.525Z,4.50
2018-09-15T08:53:05.596Z,4.50
2018-09-15T08:54:05.523Z,4.50
2018-09-15T08:55:05.590Z,4.50
2018-09-15T08:56:05.756Z,4.50
2018-09-15T08:57:05.525Z,4.50
2018-09-15T08:58:05.598Z,4.50
2018-09-15T08:59:05.603Z,4.50
2018-09-15T09:00:05.529Z,4.50
2018-09-15T09:01:05.542Z,4.50
2018-09-15T09:02:05.487Z,4.20
2018-09-15T09:03:05.585Z,4.20
2018-09-15T09:04:05.585Z,4.20
2018-09-15T09:05:05.557Z,4.20
2018-09-15T09:06:05.592Z,4.20
2018-09-15T09:07:05.594Z,4.20
2018-09-15T09:08:05.489Z,4.20
2018-09-15T09:09:05.488Z,4.20
2018-09-15T09:10:05.650Z,4.20
2018-09-15T09:11:05.600Z,4.20
2018-09-15T09:12:05.624Z,3.40
2018-09-15T09:13:05.643Z,3.40
2018-09-15T09:14:05.569Z,3.40
2018-09-15T09:15:05.648Z,3.40
2018-09-15T09:16:05.507Z,3.40
2018-09-15T09:17:05.640Z,3.40
2018-09-15T09:18:05.631Z,3.40
2018-09-15T09:19:05.527Z,3.40
2018-09-15T09:20:05.705Z,3.40
2018-09-15T09:21:05.650Z,3.40
2018-09-15T09:22:05.514Z,3.40
2018-09-15T09:23:05.615Z,3.40
2018-09-15T09:24:05.594Z,3.40
2018-09-15T09:25:05.521Z,3.40
2018-09-15T09:26:05.627Z,3.40
2018-09-15T09:27:05.555Z,3.40
2018-09-15T09:28:05.574Z,3.40
2018-09-15T09:29:05.633Z,3.40
2018-09-15T09:30:05.592Z,3.40
2018-09-15T09:31:05.543Z,3.40
2018-09-15T09:32:05.658Z,3.40
2018-09-15T09:33:05.639Z,1.90
2018-09-15T09:34:05.623Z,1.90
2018-09-15T09:35:05.558Z,1.90
2018-09-15T09:36:05.557Z,1.90
2018-09-15T09:37:05.627Z,1.90
2018-09-15T09:38:05.628Z,1.90
2018-09-15T09:39:05.623Z,1.90
2018-09-15T09:40:05.625Z,1.90
2018-09-15T09:41:05.625Z,1.90
2018-09-15T09:42:05.564Z,1.90
2018-09-15T09:43:05.628Z,1.70
2018-09-15T09:44:05.561Z,1.70
2018-09-15T09:45:05.671Z,1.70
2018-09-15T09:46:05.631Z,1.70
2018-09-15T09:47:05.567Z,1.70
2018-09-15T09:48:05.685Z,1.70
2018-09-15T09:49:05.565Z,1.70
2018-09-15T09:50:05.564Z,1.70
2018-09-15T09:51:05.586Z,1.70
2018-09-15T09:52:05.564Z,1.70
2018-09-15T09:53:05.657Z,1.99
2018-09-15T09:54:05.581Z,1.99
2018-09-15T09:55:05.620Z,1.99
2018-09-15T09:56:05.519Z,1.99
2018-09-15T09:57:05.523Z,1.99
2018-09-15T09:58:05.587Z,1.99
2018-09-15T09:59:05.528Z,1.99
2018-09-15T10:00:05.528Z,1.99
2018-09-15T10:01:05.679Z,1.99
2018-09-15T10:02:05.609Z,1.99
2018-09-15T10:03:05.602Z,1.99
2018-09-15T10:04:05.692Z,1.99
2018-09-15T10:05:05.642Z,1.99
2018-09-15T10:06:05.640Z,1.99
2018-09-15T10:07:05.690Z,1.99
2018-09-15T10:08:05.593Z,1.99
2018-09-15T10:09:05.644Z,1.99
2018-09-15T10:10:05.643Z,1.99
2018-09-15T10:11:05.644Z,1.99
2018-09-15T10:12:05.643Z,1.99
2018-09-15T10:13:05.620Z,1.20
2018-09-15T10:14:05.568Z,1.20
2018-09-15T10:15:05.558Z,1.20
2018-09-15T10:16:05.611Z,1.20
2018-09-15T10:17:05.554Z,1.20
2018-09-15T10:18:05.556Z,1.20
2018-09-15T10:19:05.590Z,1.20
2018-09-15T10:20:05.562Z,1.20
2018-09-15T10:21:05.626Z,1.20
2018-09-15T10:22:05.594Z,1.20
2018-09-15T10:23:05.676Z,1.00
2018-09-15T10:24:05.598Z,1.00
2018-09-15T10:25:05.848Z,1.00
2018-09-15T10:26:05.543Z,1.00
2018-09-15T10:27:05.544Z,1.00
2018-09-15T10:28:05.647Z,1.00
2018-09-15T10:29:05.611Z,1.00
2018-09-15T10:30:05.564Z,1.00
2018-09-15T10:31:05.592Z,1.00
2018-09-15T10:32:05.671Z,1.00
2018-09-15T10:33:05.641Z,1.00
2018-09-15T10:34:05.526Z,1.00
2018-09-15T10:35:05.646Z,1.00
2018-09-15T10:36:05.556Z,1.00
2018-09-15T10:37:05.616Z,1.00
2018-09-15T10:38:05.557Z,1.00
2018-09-15T10:39:05.568Z,1.00
2018-09-15T10:40:05.532Z,1.00
2018-09-15T10:41:05.624Z,1.00
2018-09-15T10:42:05.609Z,1.00
2018-09-15T10:43:05.542Z,1.00
2018-09-15T10:44:05.603Z,1.00
2018-09-15T10:45:05.645Z,1.00
2018-09-15T10:46:05.629Z,1.00
2018-09-15T10:47:05.667Z,1.00
2018-09-15T10:48:05.594Z,1.00
2018-09-15T10:49:05.595Z,1.00
2018-09-15T10:50:05.608Z,1.00
2018-09-15T10:51:05.655Z,1.00
2018-09-15T10:52:05.560Z,1.00
2018-09-15T10:53:05.623Z,0.80
2018-09-15T10:54:05.680Z,0.80
2018-09-15T10:55:05.645Z,0.80
2018-09-15T10:56:05.620Z,0.80
2018-09-15T10:57:05.678Z,0.80
2018-09-15T10:58:05.684Z,0.80
2018-09-15T10:59:05.682Z,0.80
2018-09-15T11:00:05.612Z,0.80
2018-09-15T11:01:05.617Z,0.80
2018-09-15T11:02:05.617Z,0.80
2018-09-15T11:03:05.585Z,0.80
2018-09-15T11:04:05.641Z,0.80
2018-09-15T11:05:05.685Z,0.80
2018-09-15T11:06:05.638Z,0.80
2018-09-15T11:07:05.686Z,0.80
2018-09-15T11:08:05.662Z,0.80
2018-09-15T11:09:05.612Z,0.80
2018-09-15T11:10:05.708Z,0.80
2018-09-15T11:11:05.659Z,0.80
2018-09-15T11:12:05.718Z,0.80
2018-09-15T11:13:05.649Z,1.00
2018-09-15T11:14:05.586Z,1.00
2018-09-15T11:15:05.566Z,1.00
2018-09-15T11:16:05.674Z,1.00
2018-09-15T11:17:05.585Z,1.00
2018-09-15T11:18:05.669Z,1.00
2018-09-15T11:19:05.629Z,1.00
2018-09-15T11:20:05.562Z,1.00
2018-09-15T11:21:05.599Z,1.00
2018-09-15T11:22:05.683Z,1.00
2018-09-15T11:23:05.616Z,1.00
2018-09-15T11:24:05.647Z,1.00
2018-09-15T11:25:05.566Z,1.00
2018-09-15T11:26:05.692Z,1.00
2018-09-15T11:27:05.696Z,1.00
2018-09-15T11:28:05.722Z,1.00
2018-09-15T11:29:05.748Z,1.00
2018-09-15T11:30:05.637Z,1.00
2018-09-15T11:31:05.573Z,1.00
2018-09-15T11:32:05.621Z,1.00
2018-09-15T11:33:05.642Z,0.60
2018-09-15T11:34:05.753Z,0.60
2018-09-15T11:35:05.709Z,0.60
2018-09-15T11:36:05.716Z,0.60
2018-09-15T11:37:05.710Z,0.60
2018-09-15T11:38:05.641Z,0.60
2018-09-15T11:39:05.711Z,0.60
2018-09-15T11:40:05.647Z,0.60
2018-09-15T11:41:05.684Z,0.60
2018-09-15T11:42:05.622Z,0.60
2018-09-15T11:43:05.713Z,0.80
2018-09-15T11:44:05.743Z,0.80
2018-09-15T11:45:05.690Z,0.80
2018-09-15T11:46:05.654Z,0.80
2018-09-15T11:47:05.715Z,0.80
2018-09-15T11:48:05.772Z,0.80
2018-09-15T11:49:05.656Z,0.80
2018-09-15T11:50:05.691Z,0.80
2018-09-15T11:51:05.692Z,0.80
2018-09-15T11:52:05.715Z,0.80
2018-09-15T11:53:05.681Z,0.70
2018-09-15T11:54:05.657Z,0.70
2018-09-15T11:55:05.720Z,0.70
2018-09-15T11:56:05.761Z,0.70
2018-09-15T11:57:05.631Z,0.70
2018-09-15T11:58:05.633Z,0.70
2018-09-15T11:59:05.629Z,0.70
2018-09-15T12:00:05.717Z,0.70
2018-09-15T12:01:05.747Z,0.70
2018-09-15T12:02:05.763Z,0.70
2018-09-15T12:03:05.730Z,0.80
2018-09-15T12:04:05.722Z,0.80
2018-09-15T12:05:05.662Z,0.80
2018-09-15T12:06:05.661Z,0.80
2018-09-15T12:07:05.663Z,0.80
2018-09-15T12:08:05.730Z,0.80
2018-09-15T12:09:05.731Z,0.80
2018-09-15T12:10:05.662Z,0.80
2018-09-15T12:11:05.737Z,0.80
2018-09-15T12:12:05.666Z,0.80
2018-09-15T12:13:05.666Z,1.20
2018-09-15T12:14:05.678Z,1.20
2018-09-15T12:15:05.745Z,1.20
2018-09-15T12:16:05.669Z,1.20
2018-09-15T12:17:05.737Z,1.20
2018-09-15T12:18:05.668Z,1.20
2018-09-15T12:19:05.737Z,1.20
2018-09-15T12:20:05.744Z,1.20
2018-09-15T12:21:05.670Z,1.20
2018-09-15T12:22:05.675Z,1.20
2018-09-15T12:23:05.683Z,1.10
2018-09-15T12:24:05.713Z,1.10
2018-09-15T12:25:05.741Z,1.10
2018-09-15T12:26:05.765Z,1.10
2018-09-15T12:27:05.722Z,1.10
2018-09-15T12:28:05.773Z,1.10
2018-09-15T12:29:05.702Z,1.10
2018-09-15T12:30:05.671Z,1.10
2018-09-15T12:31:05.651Z,1.10
2018-09-15T12:32:05.711Z,1.10
2018-09-15T12:33:05.686Z,0.90
2018-09-15T12:34:05.720Z,0.90
2018-09-15T12:35:05.753Z,0.90
2018-09-15T12:36:05.685Z,0.90
2018-09-15T12:37:05.753Z,0.90
2018-09-15T12:38:05.712Z,0.90
2018-09-15T12:39:05.772Z,0.90
2018-09-15T12:40:05.707Z,0.90
2018-09-15T12:41:05.795Z,0.90
2018-09-15T12:42:05.722Z,0.90
2018-09-15T12:43:05.787Z,0.70
2018-09-15T12:44:05.756Z,0.70
2018-09-15T12:45:05.841Z,0.70
2018-09-15T12:46:05.769Z,0.70
2018-09-15T12:47:05.778Z,0.70
2018-09-15T12:48:05.660Z,0.70
2018-09-15T12:49:05.725Z,0.70
2018-09-15T12:50:05.661Z,0.70
2018-09-15T12:51:05.779Z,0.70
2018-09-15T12:52:05.818Z,0.70
2018-09-15T12:53:05.765Z,1.60
2018-09-15T12:54:05.762Z,1.60
2018-09-15T12:55:05.699Z,1.60
2018-09-15T12:56:05.764Z,1.60
2018-09-15T12:57:05.697Z,1.60
2018-09-15T12:58:05.704Z,1.60
2018-09-15T12:59:05.703Z,1.60
2018-09-15T13:00:05.728Z,1.60
2018-09-15T13:01:05.764Z,1.60
2018-09-15T13:02:05.707Z,1.60
2018-09-15T13:03:05.771Z,1.20
2018-09-15T13:04:05.770Z,1.20
2018-09-15T13:05:05.769Z,1.20
2018-09-15T13:06:05.704Z,1.20
2018-09-15T13:07:05.794Z,1.20
2018-09-15T13:08:05.702Z,1.20
2018-09-15T13:09:05.774Z,1.20
2018-09-15T13:10:05.710Z,1.20
2018-09-15T13:11:05.836Z,1.20